createdAt,value
2019-03-27T00:03:49.543Z,8.60
2019-03-27T00:06:33.280Z,8.50
2019-03-27T00:09:17.258Z,8.50
2019-03-27T00:12:08.875Z,8.50
2019-03-27T00:14:51.571Z,8.60
2019-03-27T00:17:43.300Z,8.50
2019-03-27T00:20:28.466Z,8.60
2019-03-27T00:23:20.157Z,8.60
2019-03-27T00:26:04.551Z,8.50
2019-03-27T00:28:56.307Z,8.50
2019-03-27T00:31:29.162Z,8.50
2019-03-27T00:34:01.943Z,8.50
2019-03-27T00:36:45.767Z,8.60
2019-03-27T00:39:37.884Z,8.60
2019-03-27T00:42:22.136Z,8.50
2019-03-27T00:45:26.000Z,8.50
2019-03-27T00:48:04.999Z,8.50
2019-03-27T00:50:56.639Z,8.50
2019-03-27T00:53:40.880Z,8.50
2019-03-27T00:56:32.565Z,8.50
2019-03-27T00:59:19.211Z,8.50
2019-03-27T01:02:10.324Z,8.50
2019-03-27T01:04:55.457Z,8.60
2019-03-27T01:07:39.484Z,8.60
2019-03-27T01:10:31.329Z,8.60
2019-03-27T01:13:15.772Z,8.60
2019-03-27T01:16:07.479Z,8.50
2019-03-27T01:18:51.642Z,8.50
2019-03-27T01:21:43.270Z,8.50
2019-03-27T01:24:27.530Z,8.50
2019-03-27T01:27:19.132Z,8.50
2019-03-27T01:30:04.893Z,8.50
2019-03-27T01:32:56.518Z,8.50
2019-03-27T01:35:41.225Z,8.50
2019-03-27T01:38:32.747Z,8.50
2019-03-27T01:41:16.721Z,8.60
2019-03-27T01:44:08.458Z,8.60
2019-03-27T01:46:52.985Z,8.50
2019-03-27T01:49:44.680Z,8.50
2019-03-27T01:52:28.741Z,8.50
2019-03-27T01:55:20.378Z,8.50
2019-03-27T01:58:04.113Z,8.50
2019-03-27T02:00:55.916Z,8.60
2019-03-27T02:03:40.342Z,8.60
2019-03-27T02:06:32.271Z,8.50
2019-03-27T02:09:16.532Z,8.60
2019-03-27T02:12:00.479Z,8.50
2019-03-27T02:14:44.845Z,8.40
2019-03-27T02:17:29.689Z,8.40
2019-03-27T02:20:21.802Z,8.40
2019-03-27T02:23:05.870Z,8.40
2019-03-27T02:25:57.610Z,8.40
2019-03-27T02:28:30.551Z,8.40
2019-03-27T02:31:22.239Z,8.40
2019-03-27T02:34:06.873Z,8.50
2019-03-27T02:39:41.796Z,8.40
2019-03-27T02:42:33.496Z,8.40
2019-03-27T02:45:17.643Z,8.40
2019-03-27T02:48:09.475Z,8.40
2019-03-27T02:50:42.699Z,8.40
2019-03-27T02:53:34.331Z,8.40
2019-03-27T02:56:18.458Z,8.40
2019-03-27T02:59:10.073Z,8.30
2019-03-27T03:01:53.861Z,8.20
2019-03-27T03:04:45.766Z,8.20
2019-03-27T03:07:30.873Z,8.20
2019-03-27T03:10:22.587Z,8.20
2019-03-27T03:13:14.323Z,8.30
2019-03-27T03:15:47.141Z,8.30
2019-03-27T03:18:38.685Z,8.30
2019-03-27T03:21:23.860Z,8.30
2019-03-27T03:24:15.769Z,8.30
2019-03-27T03:26:59.448Z,8.30
2019-03-27T03:29:51.160Z,8.30
2019-03-27T03:32:35.303Z,8.30
2019-03-27T03:35:27.850Z,8.30
2019-03-27T03:38:11.546Z,8.30
2019-03-27T03:41:04.224Z,8.20
2019-03-27T03:43:48.224Z,8.20
2019-03-27T03:46:40.065Z,8.20
2019-03-27T03:49:13.057Z,8.20
2019-03-27T03:51:57.396Z,8.20
2019-03-27T03:54:41.514Z,8.20
2019-03-27T03:57:33.284Z,8.20
2019-03-27T04:00:17.618Z,8.20
2019-03-27T04:03:09.618Z,8.20
2019-03-27T04:05:54.818Z,8.20
2019-03-27T04:08:46.568Z,8.20
2019-03-27T04:11:30.475Z,8.20
2019-03-27T04:14:22.109Z,8.20
2019-03-27T04:17:17.088Z,8.20
2019-03-27T04:23:23.677Z,8.10
2019-03-27T04:26:15.474Z,8.10
2019-03-27T04:28:59.189Z,8.10
2019-03-27T04:31:50.769Z,8.20
2019-03-27T04:34:34.997Z,8.20
2019-03-27T04:37:26.649Z,8.20
2019-03-27T04:40:10.642Z,8.10
2019-03-27T04:43:02.673Z,8.20
2019-03-27T04:45:46.984Z,8.20
2019-03-27T04:48:20.067Z,8.10
2019-03-27T04:51:03.930Z,8.20
2019-03-27T04:53:36.827Z,8.20
2019-03-27T04:56:21.419Z,8.10
2019-03-27T04:59:13.103Z,8.00
2019-03-27T05:01:46.046Z,8.00
2019-03-27T05:04:30.210Z,8.10
2019-03-27T05:07:21.975Z,8.10
2019-03-27T05:10:07.253Z,8.00
2019-03-27T05:12:58.961Z,8.00
2019-03-27T05:15:44.203Z,8.00
2019-03-27T05:18:35.965Z,8.00
2019-03-27T05:21:20.138Z,8.00
2019-03-27T05:24:11.653Z,7.90
2019-03-27T05:26:55.410Z,7.90
2019-03-27T05:29:47.093Z,7.90
2019-03-27T05:32:31.460Z,7.90
2019-03-27T05:35:23.247Z,7.80
2019-03-27T05:38:06.769Z,7.90
2019-03-27T05:40:58.383Z,7.90
2019-03-27T05:43:31.340Z,7.80
2019-03-27T05:46:22.968Z,7.80
2019-03-27T05:49:16.319Z,7.80
2019-03-27T05:52:07.947Z,7.80
2019-03-27T05:54:52.215Z,7.70
2019-03-27T05:57:43.959Z,7.70
2019-03-27T06:00:28.535Z,7.80
2019-03-27T06:03:20.171Z,7.80
2019-03-27T06:06:04.662Z,7.80
2019-03-27T06:08:48.870Z,7.80
2019-03-27T06:11:40.565Z,7.90
2019-03-27T06:14:26.288Z,7.80
2019-03-27T06:17:17.927Z,7.90
2019-03-27T06:19:50.856Z,7.90
2019-03-27T06:22:42.882Z,7.90
2019-03-27T06:25:16.682Z,7.90
2019-03-27T06:27:49.760Z,8.00
2019-03-27T06:30:34.750Z,8.00
2019-03-27T06:33:18.634Z,8.00
2019-03-27T06:36:10.602Z,8.10
2019-03-27T06:38:56.156Z,8.10
2019-03-27T06:41:47.796Z,8.10
2019-03-27T06:44:32.180Z,8.00
2019-03-27T06:47:23.881Z,8.10
2019-03-27T06:50:08.161Z,8.20
2019-03-27T06:52:59.941Z,8.20
2019-03-27T06:55:42.646Z,8.20
2019-03-27T06:58:34.301Z,8.30
2019-03-27T07:01:19.227Z,8.30
2019-03-27T07:04:11.152Z,8.40
2019-03-27T07:06:55.574Z,8.20
2019-03-27T07:09:47.236Z,8.20
2019-03-27T07:12:32.376Z,8.10
2019-03-27T07:15:15.523Z,8.10
2019-03-27T07:18:07.347Z,8.10
2019-03-27T07:20:41.192Z,8.10
2019-03-27T07:23:33.675Z,8.20
2019-03-27T07:26:06.558Z,8.20
2019-03-27T07:28:58.633Z,8.20
2019-03-27T07:31:31.783Z,8.30
2019-03-27T07:34:23.549Z,8.30
2019-03-27T07:36:56.437Z,8.30
2019-03-27T07:42:19.899Z,8.40
2019-03-27T07:44:52.795Z,8.40
2019-03-27T07:47:25.687Z,8.50
2019-03-27T07:49:58.547Z,8.50
2019-03-27T07:52:31.516Z,8.60
2019-03-27T07:55:18.462Z,8.70
2019-03-27T07:57:39.337Z,8.70
2019-03-27T08:00:34.079Z,8.70
2019-03-27T08:03:07.001Z,8.80
2019-03-27T08:05:39.940Z,8.70
2019-03-27T08:08:12.762Z,8.80
2019-03-27T08:10:45.756Z,8.80
2019-03-27T08:13:18.678Z,9.00
2019-03-27T08:15:51.836Z,8.90
2019-03-27T08:18:25.675Z,8.90
2019-03-27T08:20:58.512Z,8.80
2019-03-27T08:23:31.155Z,8.70
2019-03-27T08:26:04.459Z,8.70
2019-03-27T08:28:37.177Z,8.80
2019-03-27T08:31:10.068Z,8.80
2019-03-27T08:33:42.976Z,8.80
2019-03-27T08:36:34.720Z,8.80
2019-03-27T08:39:19.790Z,8.90
2019-03-27T08:42:03.496Z,9.00
2019-03-27T08:44:36.149Z,9.00
2019-03-27T08:47:20.435Z,9.00
2019-03-27T08:50:04.404Z,9.20
2019-03-27T08:52:48.717Z,9.20
2019-03-27T08:55:40.320Z,9.40
2019-03-27T08:58:13.136Z,9.50
2019-03-27T09:01:04.903Z,9.50
2019-03-27T09:03:48.874Z,9.50
2019-03-27T09:06:33.997Z,9.60
2019-03-27T09:09:19.612Z,9.70
2019-03-27T09:12:11.238Z,9.70
2019-03-27T09:14:55.086Z,9.80
2019-03-27T09:17:39.870Z,9.90
2019-03-27T09:20:31.626Z,10.00
2019-03-27T09:23:16.325Z,10.00
2019-03-27T09:26:07.948Z,10.00
2019-03-27T09:28:52.595Z,10.00
2019-03-27T09:31:45.423Z,9.90
2019-03-27T09:34:35.536Z,9.90
2019-03-27T09:37:27.271Z,9.90
2019-03-27T09:40:11.502Z,9.90
2019-03-27T09:43:03.236Z,10.00
2019-03-27T09:45:47.639Z,9.90
2019-03-27T09:48:39.244Z,10.00
2019-03-27T09:51:24.089Z,10.10
2019-03-27T09:54:16.090Z,10.30
2019-03-27T09:57:00.008Z,10.40
2019-03-27T09:59:43.639Z,10.60
2019-03-27T10:02:35.595Z,10.60
2019-03-27T10:05:20.216Z,10.60
2019-03-27T10:08:11.897Z,10.60
2019-03-27T10:10:56.271Z,10.70
2019-03-27T10:13:48.064Z,10.70
2019-03-27T10:16:20.985Z,10.80
2019-03-27T10:19:12.940Z,10.80
2019-03-27T10:27:22.069Z,11.10
2019-03-27T10:30:13.734Z,11.00
2019-03-27T10:32:58.902Z,11.20
2019-03-27T10:35:50.687Z,11.30
2019-03-27T10:38:35.527Z,11.50
2019-03-27T10:41:27.355Z,11.50
2019-03-27T10:44:11.261Z,11.50
2019-03-27T10:47:03.020Z,11.50
2019-03-27T10:49:46.716Z,11.60
2019-03-27T10:52:39.353Z,11.60
2019-03-27T10:55:25.781Z,11.40
2019-03-27T10:57:59.223Z,11.10
2019-03-27T11:00:51.199Z,11.10
2019-03-27T11:03:44.805Z,11.10
2019-03-27T11:06:17.585Z,11.20
2019-03-27T11:09:04.566Z,11.20
2019-03-27T11:11:56.471Z,11.20
2019-03-27T11:14:41.967Z,11.20
2019-03-27T11:17:34.132Z,11.20
2019-03-27T11:20:30.233Z,11.30
2019-03-27T11:22:53.326Z,11.20
2019-03-27T11:25:45.120Z,11.20
2019-03-27T11:28:32.111Z,11.40
2019-03-27T11:31:36.396Z,11.50
2019-03-27T11:34:15.007Z,11.50
2019-03-27T11:37:07.301Z,11.50
2019-03-27T11:39:40.179Z,11.40
2019-03-27T11:42:13.208Z,11.40
2019-03-27T11:44:57.930Z,11.30
2019-03-27T11:47:49.734Z,11.30
2019-03-27T11:50:22.603Z,11.20
2019-03-27T11:53:14.345Z,11.30
2019-03-27T11:55:58.785Z,11.30
2019-03-27T11:58:50.555Z,11.20
2019-03-27T12:01:23.536Z,11.10
2019-03-27T12:04:20.840Z,11.00
2019-03-27T12:07:05.047Z,11.00
2019-03-27T12:09:56.877Z,10.90
2019-03-27T12:12:40.813Z,10.90
2019-03-27T12:18:52.206Z,11.00
2019-03-27T12:21:37.270Z,11.20
2019-03-27T12:24:29.025Z,11.30
2019-03-27T12:27:13.090Z,11.40
2019-03-27T12:30:06.023Z,11.60
2019-03-27T12:32:50.513Z,11.50
2019-03-27T12:35:34.347Z,11.50
2019-03-27T12:38:26.181Z,11.50
2019-03-27T12:40:59.163Z,11.50
2019-03-27T12:43:43.122Z,11.60
2019-03-27T12:46:34.694Z,11.80
2019-03-27T12:49:19.200Z,11.70
2019-03-27T12:52:05.561Z,11.70
2019-03-27T12:54:50.139Z,11.70
2019-03-27T12:57:41.790Z,11.60
2019-03-27T13:00:26.195Z,11.60
2019-03-27T13:03:17.858Z,11.80
2019-03-27T13:06:02.305Z,11.70
2019-03-27T13:08:54.119Z,11.80
2019-03-27T13:11:26.947Z,11.80
2019-03-27T13:14:18.661Z,11.70
2019-03-27T13:16:52.406Z,11.70
2019-03-27T13:19:57.070Z,11.80
2019-03-27T13:22:48.978Z,11.80
2019-03-27T13:28:48.244Z,11.80
2019-03-27T13:31:31.507Z,11.90
2019-03-27T13:34:17.027Z,11.80
2019-03-27T13:37:36.454Z,11.80
2019-03-27T13:40:26.635Z,11.80
2019-03-27T13:43:24.447Z,11.90
2019-03-27T13:46:11.547Z,11.90
2019-03-27T13:52:10.899Z,12.20
2019-03-27T13:54:44.208Z,12.10
2019-03-27T13:57:36.052Z,12.00
2019-03-27T14:00:20.578Z,12.10
2019-03-27T14:02:53.518Z,12.10
2019-03-27T14:05:37.821Z,12.10
2019-03-27T14:08:29.753Z,12.20
2019-03-27T14:11:02.538Z,12.20
2019-03-27T14:13:35.360Z,12.10
2019-03-27T14:16:20.799Z,12.10
2019-03-27T14:19:13.608Z,12.20
2019-03-27T14:21:58.999Z,12.30
2019-03-27T14:24:43.045Z,12.30
2019-03-27T14:27:27.224Z,12.40
2019-03-27T14:30:11.766Z,12.50
2019-03-27T14:33:03.652Z,12.50
2019-03-27T14:35:48.101Z,12.60
2019-03-27T14:38:39.741Z,12.70
2019-03-27T14:41:24.618Z,12.60
2019-03-27T14:44:17.816Z,12.60
2019-03-27T14:47:02.758Z,12.70
2019-03-27T14:49:54.617Z,12.60
2019-03-27T14:52:39.815Z,12.60
2019-03-27T14:55:31.476Z,12.40
2019-03-27T14:58:16.141Z,12.40
2019-03-27T15:01:07.839Z,12.40
2019-03-27T15:03:51.686Z,12.40
2019-03-27T15:06:43.532Z,12.40
2019-03-27T15:09:27.480Z,12.30
2019-03-27T15:12:19.280Z,12.30
2019-03-27T15:15:03.494Z,12.10
2019-03-27T15:17:48.616Z,11.90
2019-03-27T15:20:40.678Z,12.00
2019-03-27T15:23:25.379Z,11.90
2019-03-27T15:26:09.380Z,12.00
2019-03-27T15:29:01.083Z,12.00
2019-03-27T15:31:44.810Z,12.00
2019-03-27T15:34:36.537Z,11.90
2019-03-27T15:37:20.369Z,12.00
2019-03-27T15:40:12.685Z,12.10
2019-03-27T15:43:18.862Z,12.10
2019-03-27T15:45:51.725Z,12.10
2019-03-27T15:48:35.754Z,12.10
2019-03-27T15:51:27.416Z,12.20
2019-03-27T15:54:12.190Z,12.10
2019-03-27T15:57:04.973Z,12.20
2019-03-27T15:59:49.648Z,12.20
2019-03-27T16:02:44.169Z,12.10
2019-03-27T16:05:29.308Z,12.10
2019-03-27T16:08:21.313Z,12.00
2019-03-27T16:10:54.376Z,12.10
2019-03-27T16:13:46.118Z,12.10
2019-03-27T16:16:30.059Z,12.10
2019-03-27T16:19:03.177Z,12.20
2019-03-27T16:21:47.378Z,12.10
2019-03-27T16:24:39.007Z,12.20
2019-03-27T16:27:23.031Z,12.10
2019-03-27T16:29:55.960Z,12.10
2019-03-27T16:32:40.392Z,12.00
2019-03-27T16:35:24.615Z,12.00
2019-03-27T16:38:16.709Z,12.00
2019-03-27T16:40:50.324Z,11.90
2019-03-27T16:43:35.162Z,11.90
2019-03-27T16:46:08.756Z,11.80
2019-03-27T16:48:52.946Z,11.80
2019-03-27T16:51:57.312Z,11.90
2019-03-27T16:54:36.103Z,11.90
2019-03-27T16:57:27.834Z,11.80
2019-03-27T17:00:00.595Z,11.80
2019-03-27T17:02:33.630Z,11.80
2019-03-27T17:05:17.452Z,11.70
2019-03-27T17:08:09.501Z,11.70
2019-03-27T17:10:53.282Z,11.60
2019-03-27T17:13:45.045Z,11.60
2019-03-27T17:16:29.661Z,11.60
2019-03-27T17:19:13.417Z,11.80
2019-03-27T17:21:58.676Z,11.80
2019-03-27T17:24:31.574Z,11.60
2019-03-27T17:27:04.562Z,11.60
2019-03-27T17:29:56.513Z,11.60
2019-03-27T17:32:41.905Z,11.50
2019-03-27T17:38:17.792Z,11.30
2019-03-27T17:41:02.470Z,11.30
2019-03-27T17:43:35.816Z,11.30
2019-03-27T17:46:09.088Z,11.30
2019-03-27T17:49:01.354Z,11.20
2019-03-27T17:51:45.829Z,11.20
2019-03-27T17:54:37.487Z,11.10
2019-03-27T17:57:22.144Z,11.10
2019-03-27T18:00:08.545Z,11.10
2019-03-27T18:03:00.377Z,11.10
2019-03-27T18:05:44.246Z,11.10
2019-03-27T18:08:17.405Z,11.10
2019-03-27T18:11:04.172Z,11.10
2019-03-27T18:13:55.793Z,11.10
2019-03-27T18:19:21.972Z,11.10
2019-03-27T18:22:13.710Z,11.00
2019-03-27T18:24:57.619Z,11.00
2019-03-27T18:27:50.139Z,11.00
2019-03-27T18:30:35.231Z,10.90
2019-03-27T18:33:19.262Z,11.00
2019-03-27T18:36:10.965Z,11.00
2019-03-27T18:38:55.214Z,11.00
2019-03-27T18:41:38.996Z,11.00
2019-03-27T18:44:30.733Z,11.00
2019-03-27T18:47:15.004Z,11.10
2019-03-27T18:50:07.118Z,11.10
2019-03-27T18:52:50.970Z,11.10
2019-03-27T18:55:42.568Z,11.10
2019-03-27T18:58:26.433Z,11.10
2019-03-27T19:01:18.179Z,11.00
2019-03-27T19:04:03.357Z,11.00
2019-03-27T19:06:58.469Z,10.90
2019-03-27T19:09:58.603Z,10.90
2019-03-27T19:12:50.226Z,10.90
2019-03-27T19:15:33.857Z,10.90
2019-03-27T19:18:25.432Z,10.80
2019-03-27T19:21:09.587Z,10.80
2019-03-27T19:24:13.175Z,10.80
2019-03-27T19:27:06.071Z,10.70
2019-03-27T19:29:57.837Z,10.60
2019-03-27T19:32:42.286Z,10.60
2019-03-27T19:35:33.985Z,10.60
2019-03-27T19:38:17.886Z,10.60
2019-03-27T19:41:09.669Z,10.60
2019-03-27T19:43:54.002Z,10.50
2019-03-27T19:46:45.761Z,10.50
2019-03-27T19:49:29.853Z,10.50
2019-03-27T19:52:21.651Z,10.40
2019-03-27T19:55:06.892Z,10.40
2019-03-27T19:57:58.768Z,10.40
2019-03-27T20:00:42.626Z,10.30
2019-03-27T20:03:34.891Z,10.30
2019-03-27T20:06:39.616Z,10.30
2019-03-27T20:09:31.255Z,10.20
2019-03-27T20:12:15.743Z,10.20
2019-03-27T20:14:48.637Z,10.20
2019-03-27T20:17:32.379Z,10.10
2019-03-27T20:20:24.108Z,10.20
2019-03-27T20:23:14.955Z,10.10
2019-03-27T20:26:01.919Z,10.10
2019-03-27T20:28:46.309Z,10.10
2019-03-27T20:31:38.016Z,10.10
2019-03-27T20:34:22.963Z,10.10
2019-03-27T20:37:14.592Z,10.10
2019-03-27T20:39:47.226Z,10.10
2019-03-27T20:42:38.893Z,10.00
2019-03-27T20:45:23.971Z,10.00
2019-03-27T20:48:15.692Z,10.00
2019-03-27T20:51:00.269Z,9.90
2019-03-27T20:53:52.083Z,9.90
2019-03-27T20:56:36.489Z,9.80
2019-03-27T20:59:28.281Z,9.70
2019-03-27T21:02:12.513Z,9.60
2019-03-27T21:05:04.314Z,9.70
2019-03-27T21:07:48.803Z,9.60
2019-03-27T21:10:40.553Z,9.50
2019-03-27T21:13:24.988Z,9.40
2019-03-27T21:16:16.703Z,9.40
2019-03-27T21:19:00.748Z,9.30
2019-03-27T21:21:52.249Z,9.20
2019-03-27T21:24:36.104Z,9.20
2019-03-27T21:27:28.768Z,9.10
2019-03-27T21:30:12.919Z,9.00
2019-03-27T21:33:04.625Z,9.00
2019-03-27T21:35:49.820Z,9.00
2019-03-27T21:38:41.459Z,9.00
2019-03-27T21:41:25.926Z,8.90
2019-03-27T21:44:17.530Z,8.80
2019-03-27T21:47:01.391Z,8.80
2019-03-27T21:49:53.078Z,8.70
2019-03-27T21:52:36.733Z,8.60
2019-03-27T21:55:22.897Z,8.60
2019-03-27T21:58:14.039Z,8.60
2019-03-27T22:00:58.691Z,8.50
2019-03-27T22:03:50.383Z,8.40
2019-03-27T22:06:34.561Z,8.30
2019-03-27T22:09:26.037Z,8.30
2019-03-27T22:12:09.711Z,8.20
2019-03-27T22:14:42.893Z,8.20
2019-03-27T22:17:27.058Z,8.10
2019-03-27T22:20:18.821Z,8.10
2019-03-27T22:23:02.559Z,8.00
2019-03-27T22:25:54.174Z,7.90
2019-03-27T22:28:39.275Z,7.90
2019-03-27T22:31:23.893Z,7.80
2019-03-27T22:34:09.353Z,7.80
2019-03-27T22:37:01.200Z,7.70
2019-03-27T22:39:45.392Z,7.60
2019-03-27T22:42:36.994Z,7.60
2019-03-27T22:45:23.379Z,7.50
2019-03-27T22:48:06.975Z,7.40
2019-03-27T22:50:59.068Z,7.40
2019-03-27T22:53:43.259Z,7.30
2019-03-27T22:56:35.919Z,7.30
2019-03-27T22:59:21.196Z,7.20
2019-03-27T23:02:13.258Z,7.10
2019-03-27T23:04:57.663Z,7.10
2019-03-27T23:07:49.318Z,7.10
2019-03-27T23:10:33.038Z,7.10
2019-03-27T23:13:17.311Z,7.00
2019-03-27T23:16:09.934Z,6.90
2019-03-27T23:18:54.172Z,6.80
2019-03-27T23:21:46.154Z,6.70
2019-03-27T23:24:30.082Z,6.70
2019-03-27T23:27:21.729Z,6.70
2019-03-27T23:30:07.103Z,6.70
2019-03-27T23:32:58.939Z,6.60
2019-03-27T23:35:44.113Z,6.50
2019-03-27T23:38:36.058Z,6.60
2019-03-27T23:41:20.406Z,6.60
2019-03-27T23:44:12.038Z,6.50
2019-03-27T23:46:57.676Z,6.50
2019-03-27T23:49:42.040Z,6.50
2019-03-27T23:52:25.580Z,6.50
2019-03-27T23:55:17.272Z,6.50
2019-03-27T23:57:50.148Z,6.50
